createdAt,value
2019-01-21T00:00:29.911Z,-0.44
2019-01-21T00:01:29.889Z,-0.44
2019-01-21T00:02:29.867Z,-0.49
2019-01-21T00:03:29.838Z,-0.47
2019-01-21T00:04:29.815Z,-0.54
2019-01-21T00:05:29.787Z,-0.49
2019-01-21T00:06:29.760Z,-0.57
2019-01-21T00:07:29.760Z,-0.44
2019-01-21T00:08:29.715Z,-0.61
2019-01-21T00:09:29.688Z,-0.57
2019-01-21T00:10:29.670Z,-0.58
2019-01-21T00:11:29.645Z,-0.64
2019-01-21T00:12:29.617Z,-0.58
2019-01-21T00:13:29.597Z,-0.62
2019-01-21T00:14:29.579Z,-0.61
2019-01-21T00:15:29.547Z,-0.62
2019-01-21T00:16:29.523Z,-0.64
2019-01-21T00:17:29.495Z,-0.69
2019-01-21T00:18:29.477Z,-0.73
2019-01-21T00:19:29.450Z,-0.80
2019-01-21T00:20:29.425Z,-0.75
2019-01-21T00:21:29.404Z,-0.69
2019-01-21T00:22:29.381Z,-0.64
2019-01-21T00:23:29.351Z,-0.65
2019-01-21T00:24:29.325Z,-0.52
2019-01-21T00:25:29.304Z,-0.46
2019-01-21T00:26:29.282Z,-0.46
2019-01-21T00:27:29.258Z,-0.37
2019-01-21T00:28:29.236Z,-0.36
2019-01-21T00:29:29.220Z,-0.31
2019-01-21T00:30:29.183Z,-0.36
2019-01-21T00:31:29.161Z,-0.46
2019-01-21T00:32:29.135Z,-0.40
2019-01-21T00:33:29.112Z,-0.42
2019-01-21T00:34:29.089Z,-0.39
2019-01-21T00:35:29.067Z,-0.49
2019-01-21T00:36:29.043Z,-0.43
2019-01-21T00:37:29.017Z,-0.44
2019-01-21T00:38:28.991Z,-0.36
2019-01-21T00:39:28.963Z,-0.34
2019-01-21T00:40:28.940Z,-0.26
2019-01-21T00:41:28.917Z,-0.21
2019-01-21T00:42:28.889Z,-0.34
2019-01-21T00:43:28.866Z,-0.23
2019-01-21T00:44:28.845Z,-0.31
2019-01-21T00:45:28.819Z,-0.25
2019-01-21T00:46:28.797Z,-0.31
2019-01-21T00:47:30.117Z,-0.26
2019-01-21T00:48:28.742Z,-0.25
2019-01-21T00:49:28.721Z,-0.36
2019-01-21T00:50:28.696Z,-0.23
2019-01-21T00:51:28.673Z,-0.16
2019-01-21T00:52:28.648Z,-0.15
2019-01-21T00:53:28.625Z,-0.16
2019-01-21T00:54:28.603Z,-0.18
2019-01-21T00:55:28.582Z,-0.19
2019-01-21T00:56:28.549Z,-0.25
2019-01-21T00:57:28.528Z,-0.26
2019-01-21T00:58:28.505Z,-0.31
2019-01-21T00:59:28.480Z,-0.22
2019-01-21T01:00:28.456Z,-0.28
2019-01-21T01:01:28.429Z,-0.33
2019-01-21T01:02:28.408Z,-0.37
2019-01-21T01:03:28.379Z,-0.37
2019-01-21T01:04:28.354Z,-0.42
2019-01-21T01:05:28.336Z,-0.46
2019-01-21T01:06:28.310Z,-0.46
2019-01-21T01:07:28.285Z,-0.42
2019-01-21T01:08:28.264Z,-0.40
2019-01-21T01:09:28.237Z,-0.51
2019-01-21T01:10:28.216Z,-0.46
2019-01-21T01:11:28.188Z,-0.49
2019-01-21T01:12:28.167Z,-0.52
2019-01-21T01:13:28.139Z,-0.52
2019-01-21T01:14:28.120Z,-0.46
2019-01-21T01:15:28.094Z,-0.43
2019-01-21T01:16:28.070Z,-0.51
2019-01-21T01:17:28.042Z,-0.51
2019-01-21T01:18:28.020Z,-0.42
2019-01-21T01:19:27.996Z,-0.46
2019-01-21T01:20:27.969Z,-0.52
2019-01-21T01:21:27.950Z,-0.43
2019-01-21T01:22:27.922Z,-0.46
2019-01-21T01:23:27.900Z,-0.44
2019-01-21T01:24:27.874Z,-0.46
2019-01-21T01:25:27.853Z,-0.40
2019-01-21T01:26:27.823Z,-0.44
2019-01-21T01:27:27.800Z,-0.46
2019-01-21T01:28:27.778Z,-0.46
2019-01-21T01:29:27.754Z,-0.47
2019-01-21T01:30:27.731Z,-0.49
2019-01-21T01:31:27.703Z,-0.52
2019-01-21T01:32:27.680Z,-0.47
2019-01-21T01:33:27.656Z,-0.44
2019-01-21T01:34:27.632Z,-0.54
2019-01-21T01:35:27.604Z,-0.42
2019-01-21T01:36:27.580Z,-0.46
2019-01-21T01:37:27.558Z,-0.43
2019-01-21T01:38:27.536Z,-0.44
2019-01-21T01:39:27.508Z,-0.37
2019-01-21T01:40:27.489Z,-0.39
2019-01-21T01:41:27.463Z,-0.31
2019-01-21T01:42:27.441Z,-0.31
2019-01-21T01:43:27.412Z,-0.28
2019-01-21T01:44:27.394Z,-0.29
2019-01-21T01:45:27.368Z,-0.23
2019-01-21T01:46:27.344Z,-0.31
2019-01-21T01:47:27.321Z,-0.33
2019-01-21T01:48:27.296Z,-0.39
2019-01-21T01:49:27.274Z,-0.37
2019-01-21T01:50:27.243Z,-0.39
2019-01-21T01:51:27.217Z,-0.42
2019-01-21T01:52:27.196Z,-0.36
2019-01-21T01:53:27.171Z,-0.37
2019-01-21T01:54:27.147Z,-0.40
2019-01-21T01:55:27.120Z,-0.37
2019-01-21T01:56:27.101Z,-0.36
2019-01-21T01:57:27.075Z,-0.39
2019-01-21T01:58:27.051Z,-0.39
2019-01-21T01:59:27.029Z,-0.39
2019-01-21T02:00:27.002Z,-0.37
2019-01-21T02:01:26.980Z,-0.36
2019-01-21T02:02:26.951Z,-0.36
2019-01-21T02:03:26.936Z,-0.34
2019-01-21T02:04:26.906Z,-0.33
2019-01-21T02:05:26.882Z,-0.33
2019-01-21T02:06:26.856Z,-0.36
2019-01-21T02:07:26.831Z,-0.36
2019-01-21T02:08:26.810Z,-0.39
2019-01-21T02:09:26.789Z,-0.43
2019-01-21T02:10:26.759Z,-0.43
2019-01-21T02:11:26.736Z,-0.44
2019-01-21T02:12:26.710Z,-0.43
2019-01-21T02:13:26.686Z,-0.42
2019-01-21T02:14:26.664Z,-0.46
2019-01-21T02:15:26.643Z,-0.46
2019-01-21T02:16:26.613Z,-0.40
2019-01-21T02:17:26.592Z,-0.46
2019-01-21T02:18:26.567Z,-0.46
2019-01-21T02:19:26.541Z,-0.42
2019-01-21T02:20:26.518Z,-0.47
2019-01-21T02:21:26.497Z,-0.47
2019-01-21T02:22:26.471Z,-0.46
2019-01-21T02:23:26.446Z,-0.46
2019-01-21T02:24:26.423Z,-0.46
2019-01-21T02:25:26.400Z,-0.49
2019-01-21T02:26:26.371Z,-0.42
2019-01-21T02:27:26.343Z,-0.47
2019-01-21T02:28:26.325Z,-0.57
2019-01-21T02:29:26.299Z,-0.52
2019-01-21T02:30:26.277Z,-0.46
2019-01-21T02:31:26.253Z,-0.44
2019-01-21T02:32:26.225Z,-0.52
2019-01-21T02:33:26.205Z,-0.39
2019-01-21T02:34:26.183Z,-0.47
2019-01-21T02:35:26.157Z,-0.46
2019-01-21T02:36:26.130Z,-0.37
2019-01-21T02:37:26.102Z,-0.39
2019-01-21T02:38:26.081Z,-0.34
2019-01-21T02:39:26.059Z,-0.31
2019-01-21T02:40:26.033Z,-0.23
2019-01-21T02:41:26.007Z,-0.31
2019-01-21T02:42:25.987Z,-0.22
2019-01-21T02:43:25.959Z,-0.21
2019-01-21T02:44:25.941Z,-0.29
2019-01-21T02:45:25.909Z,-0.34
2019-01-21T02:46:25.889Z,-0.36
2019-01-21T02:47:25.866Z,-0.39
2019-01-21T02:48:25.841Z,-0.36
2019-01-21T02:49:25.814Z,-0.37
2019-01-21T02:50:25.797Z,-0.36
2019-01-21T02:51:25.777Z,-0.36
2019-01-21T02:52:25.746Z,-0.33
2019-01-21T02:53:25.717Z,-0.37
2019-01-21T02:54:25.697Z,-0.29
2019-01-21T02:55:25.672Z,-0.33
2019-01-21T02:56:25.648Z,-0.18
2019-01-21T02:57:25.620Z,-0.16
2019-01-21T02:58:25.596Z,-0.10
2019-01-21T02:59:25.577Z,-0.14
2019-01-21T03:00:25.547Z,-0.22
2019-01-21T03:01:25.527Z,-0.19
2019-01-21T03:02:25.499Z,-0.21
2019-01-21T03:03:25.480Z,-0.16
2019-01-21T03:04:25.452Z,-0.15
2019-01-21T03:05:25.422Z,-0.23
2019-01-21T03:06:25.407Z,-0.34
2019-01-21T03:07:25.381Z,-0.25
2019-01-21T03:08:25.358Z,-0.29
2019-01-21T03:09:25.331Z,-0.36
2019-01-21T03:10:25.305Z,-0.33
2019-01-21T03:11:25.286Z,-0.36
2019-01-21T03:12:25.259Z,-0.28
2019-01-21T03:13:25.236Z,-0.25
2019-01-21T03:14:25.208Z,-0.31
2019-01-21T03:15:25.184Z,-0.25
2019-01-21T03:16:25.162Z,-0.34
2019-01-21T03:17:25.140Z,-0.31
2019-01-21T03:18:25.111Z,-0.34
2019-01-21T03:19:25.087Z,-0.29
2019-01-21T03:20:25.065Z,-0.34
2019-01-21T03:21:25.041Z,-0.44
2019-01-21T03:22:25.017Z,-0.46
2019-01-21T03:23:24.992Z,-0.47
2019-01-21T03:24:24.971Z,-0.47
2019-01-21T03:25:24.954Z,-0.40
2019-01-21T03:26:24.920Z,-0.37
2019-01-21T03:27:24.897Z,-0.25
2019-01-21T03:28:24.871Z,-0.28
2019-01-21T03:29:24.845Z,-0.22
2019-01-21T03:30:24.842Z,-0.21
2019-01-21T03:31:24.809Z,-0.16
2019-01-21T03:32:24.776Z,-0.15
2019-01-21T03:33:26.738Z,-0.22
2019-01-21T03:34:24.727Z,-0.26
2019-01-21T03:35:24.704Z,-0.22
2019-01-21T03:36:24.672Z,-0.28
2019-01-21T03:37:24.663Z,-0.16
2019-01-21T03:38:24.629Z,-0.23
2019-01-21T03:39:24.605Z,-0.18
2019-01-21T03:40:24.579Z,-0.16
2019-01-21T03:41:24.557Z,-0.28
2019-01-21T03:42:24.533Z,-0.28
2019-01-21T03:43:24.509Z,-0.34
2019-01-21T03:44:24.485Z,-0.26
2019-01-21T03:45:24.460Z,-0.23
2019-01-21T03:46:24.439Z,-0.34
2019-01-21T03:47:24.411Z,-0.34
2019-01-21T03:48:24.410Z,-0.34
2019-01-21T03:49:24.363Z,-0.28
2019-01-21T03:50:24.336Z,-0.33
2019-01-21T03:51:24.312Z,-0.26
2019-01-21T03:52:24.293Z,-0.33
2019-01-21T03:53:24.265Z,-0.25
2019-01-21T03:54:24.249Z,-0.26
2019-01-21T03:55:24.215Z,-0.33
2019-01-21T03:56:24.194Z,-0.34
2019-01-21T03:57:24.170Z,-0.36
2019-01-21T03:58:24.176Z,-0.34
2019-01-21T03:59:24.120Z,-0.39
2019-01-21T04:00:24.100Z,-0.42
2019-01-21T04:01:24.072Z,-0.31
2019-01-21T04:02:24.048Z,-0.23
2019-01-21T04:03:24.024Z,-0.33
2019-01-21T04:04:23.997Z,-0.31
2019-01-21T04:05:23.978Z,-0.25
2019-01-21T04:06:23.950Z,-0.22
2019-01-21T04:07:23.933Z,-0.23
2019-01-21T04:08:23.902Z,-0.39
2019-01-21T04:09:23.877Z,-0.36
2019-01-21T04:10:23.857Z,-0.42
2019-01-21T04:11:23.830Z,-0.46
2019-01-21T04:12:23.804Z,-0.43
2019-01-21T04:13:23.791Z,-0.58
2019-01-21T04:14:23.761Z,-0.49
2019-01-21T04:15:23.736Z,-0.47
2019-01-21T04:16:23.714Z,-0.49
2019-01-21T04:17:23.686Z,-0.39
2019-01-21T04:18:24.652Z,-0.39
2019-01-21T04:19:23.632Z,-0.40
2019-01-21T04:20:23.610Z,-0.44
2019-01-21T04:21:23.584Z,-0.39
2019-01-21T04:22:23.566Z,-0.33
2019-01-21T04:23:23.536Z,-0.29
2019-01-21T04:24:23.516Z,-0.26
2019-01-21T04:25:23.492Z,-0.37
2019-01-21T04:26:23.470Z,-0.44
2019-01-21T04:27:23.438Z,-0.49
2019-01-21T04:28:23.415Z,-0.51
2019-01-21T04:29:23.396Z,-0.57
2019-01-21T04:30:23.370Z,-0.60
2019-01-21T04:31:23.346Z,-0.57
2019-01-21T04:32:23.328Z,-0.61
2019-01-21T04:33:23.299Z,-0.64
2019-01-21T04:34:23.272Z,-0.67
2019-01-21T04:35:23.251Z,-0.65
2019-01-21T04:36:23.220Z,-0.65
2019-01-21T04:37:23.228Z,-0.47
2019-01-21T04:38:23.177Z,-0.43
2019-01-21T04:39:23.149Z,-0.31
2019-01-21T04:40:23.129Z,-0.29
2019-01-21T04:41:23.098Z,-0.34
2019-01-21T04:42:23.074Z,-0.31
2019-01-21T04:43:23.053Z,-0.19
2019-01-21T04:44:23.030Z,-0.31
2019-01-21T04:45:23.009Z,-0.31
2019-01-21T04:46:22.984Z,-0.29
2019-01-21T04:47:22.955Z,-0.23
2019-01-21T04:48:22.940Z,-0.15
2019-01-21T04:49:22.909Z,-0.18
2019-01-21T04:50:22.883Z,-0.19
2019-01-21T04:51:22.856Z,-0.19
2019-01-21T04:52:22.831Z,-0.36
2019-01-21T04:53:22.811Z,-0.42
2019-01-21T04:54:22.786Z,-0.52
2019-01-21T04:55:22.760Z,-0.57
2019-01-21T04:56:22.742Z,-0.58
2019-01-21T04:57:22.715Z,-0.64
2019-01-21T04:58:22.692Z,-0.64
2019-01-21T04:59:22.661Z,-0.57
2019-01-21T05:00:22.640Z,-0.60
2019-01-21T05:01:22.613Z,-0.61
2019-01-21T05:02:22.587Z,-0.65
2019-01-21T05:03:22.577Z,-0.52
2019-01-21T05:04:22.542Z,-0.46
2019-01-21T05:05:22.520Z,-0.46
2019-01-21T05:06:22.496Z,-0.39
2019-01-21T05:07:22.472Z,-0.36
2019-01-21T05:08:22.448Z,-0.29
2019-01-21T05:09:22.417Z,-0.26
2019-01-21T05:10:22.395Z,-0.33
2019-01-21T05:11:22.368Z,-0.33
2019-01-21T05:12:22.362Z,-0.39
2019-01-21T05:13:22.328Z,-0.39
2019-01-21T05:14:22.300Z,-0.29
2019-01-21T05:15:22.268Z,-0.43
2019-01-21T05:16:22.249Z,-0.44
2019-01-21T05:17:22.219Z,-0.47
2019-01-21T05:18:22.220Z,-0.40
2019-01-21T05:19:22.177Z,-0.36
2019-01-21T05:20:22.156Z,-0.26
2019-01-21T05:21:22.125Z,-0.29
2019-01-21T05:22:22.100Z,-0.26
2019-01-21T05:23:22.071Z,-0.26
2019-01-21T05:24:22.051Z,-0.28
2019-01-21T05:25:22.029Z,-0.36
2019-01-21T05:26:22.006Z,-0.37
2019-01-21T05:27:21.979Z,-0.34
2019-01-21T05:28:21.953Z,-0.42
2019-01-21T05:29:21.937Z,-0.44
2019-01-21T05:30:21.901Z,-0.46
2019-01-21T05:31:21.878Z,-0.49
2019-01-21T05:32:21.851Z,-0.54
2019-01-21T05:33:21.834Z,-0.43
2019-01-21T05:34:21.809Z,-0.52
2019-01-21T05:35:21.782Z,-0.46
2019-01-21T05:36:23.184Z,-0.44
2019-01-21T05:37:21.741Z,-0.31
2019-01-21T05:38:21.711Z,-0.19
2019-01-21T05:39:21.681Z,-0.31
2019-01-21T05:40:21.662Z,-0.29
2019-01-21T05:41:21.635Z,-0.19
2019-01-21T05:42:21.615Z,-0.21
2019-01-21T05:43:21.585Z,-0.08
2019-01-21T05:44:21.564Z,-0.08
2019-01-21T05:45:21.540Z,0.10
2019-01-21T05:46:21.513Z,-0.08
2019-01-21T05:47:21.496Z,-0.10
2019-01-21T05:48:21.465Z,-0.07
2019-01-21T05:49:21.438Z,-0.18
2019-01-21T05:50:21.416Z,-0.16
2019-01-21T05:51:21.403Z,-0.15
2019-01-21T05:52:21.362Z,-0.14
2019-01-21T05:53:21.347Z,-0.19
2019-01-21T05:54:21.321Z,-0.26
2019-01-21T05:55:21.287Z,-0.31
2019-01-21T05:56:21.265Z,-0.42
2019-01-21T05:57:21.249Z,-0.39
2019-01-21T05:58:21.220Z,-0.43
2019-01-21T05:59:21.194Z,-0.49
2019-01-21T06:00:21.172Z,-0.42
2019-01-21T06:01:21.148Z,-0.42
2019-01-21T06:02:21.123Z,-0.37
2019-01-21T06:03:21.096Z,-0.39
2019-01-21T06:04:21.075Z,-0.34
2019-01-21T06:05:21.051Z,-0.34
2019-01-21T06:06:21.030Z,-0.28
2019-01-21T06:07:21.001Z,-0.40
2019-01-21T06:08:20.979Z,-0.33
2019-01-21T06:09:20.954Z,-0.26
2019-01-21T06:10:20.931Z,-0.26
2019-01-21T06:11:20.902Z,-0.21
2019-01-21T06:12:20.879Z,-0.23
2019-01-21T06:13:20.852Z,-0.22
2019-01-21T06:14:20.830Z,-0.34
2019-01-21T06:15:20.807Z,-0.40
2019-01-21T06:16:20.783Z,-0.52
2019-01-21T06:17:20.756Z,-0.51
2019-01-21T06:18:20.740Z,-0.61
2019-01-21T06:19:20.706Z,-0.51
2019-01-21T06:20:20.681Z,-0.40
2019-01-21T06:21:20.666Z,-0.43
2019-01-21T06:22:20.651Z,-0.44
2019-01-21T06:23:20.615Z,-0.33
2019-01-21T06:24:20.585Z,-0.39
2019-01-21T06:25:20.569Z,-0.31
2019-01-21T06:26:20.537Z,-0.37
2019-01-21T06:27:20.512Z,-0.19
2019-01-21T06:28:20.493Z,-0.31
2019-01-21T06:29:20.464Z,-0.19
2019-01-21T06:30:20.440Z,-0.26
2019-01-21T06:31:20.415Z,-0.31
2019-01-21T06:32:20.389Z,-0.34
2019-01-21T06:33:20.367Z,-0.23
2019-01-21T06:34:20.341Z,-0.25
2019-01-21T06:35:20.318Z,-0.39
2019-01-21T06:36:20.315Z,-0.42
2019-01-21T06:37:20.270Z,-0.46
2019-01-21T06:38:20.244Z,-0.47
2019-01-21T06:39:20.216Z,-0.55
2019-01-21T06:40:20.193Z,-0.55
2019-01-21T06:41:20.173Z,-0.67
2019-01-21T06:42:20.143Z,-0.73
2019-01-21T06:43:20.119Z,-0.79
2019-01-21T06:44:20.099Z,-0.69
2019-01-21T06:45:20.070Z,-0.64
2019-01-21T06:46:20.048Z,-0.67
2019-01-21T06:47:20.024Z,-0.78
2019-01-21T06:48:20.002Z,-0.73
2019-01-21T06:49:19.976Z,-0.78
2019-01-21T06:50:19.958Z,-0.75
2019-01-21T06:51:19.928Z,-0.85
2019-01-21T06:52:19.906Z,-0.78
2019-01-21T06:53:19.885Z,-0.86
2019-01-21T06:54:19.851Z,-0.75
2019-01-21T06:55:19.839Z,-0.62
2019-01-21T06:56:19.810Z,-0.67
2019-01-21T06:57:19.778Z,-0.55
2019-01-21T06:58:19.753Z,-0.73
2019-01-21T06:59:19.728Z,-0.70
2019-01-21T07:00:19.707Z,-0.55
2019-01-21T07:01:19.682Z,-0.64
2019-01-21T07:02:19.658Z,-0.64
2019-01-21T07:03:19.633Z,-0.62
2019-01-21T07:04:19.611Z,-0.64
2019-01-21T07:05:19.588Z,-0.49
2019-01-21T07:06:19.562Z,-0.52
2019-01-21T07:07:19.538Z,-0.58
2019-01-21T07:08:19.511Z,-0.51
2019-01-21T07:09:19.485Z,-0.54
2019-01-21T07:10:19.465Z,-0.58
2019-01-21T07:11:19.437Z,-0.64
2019-01-21T07:12:19.413Z,-0.67
2019-01-21T07:13:19.386Z,-0.67
2019-01-21T07:14:19.364Z,-0.60
2019-01-21T07:15:19.347Z,-0.51
2019-01-21T07:16:19.311Z,-0.54
2019-01-21T07:17:19.295Z,-0.54
2019-01-21T07:18:19.721Z,-0.62
2019-01-21T07:19:19.238Z,-0.60
2019-01-21T07:20:19.215Z,-0.62
2019-01-21T07:21:19.229Z,-0.51
2019-01-21T07:22:19.165Z,-0.60
2019-01-21T07:23:19.147Z,-0.70
2019-01-21T07:24:19.120Z,-0.70
2019-01-21T07:25:19.096Z,-0.79
2019-01-21T07:26:19.075Z,-0.86
2019-01-21T07:27:19.043Z,-0.89
2019-01-21T07:28:19.020Z,-0.75
2019-01-21T07:29:18.995Z,-0.55
2019-01-21T07:30:18.967Z,-0.62
2019-01-21T07:31:18.945Z,-0.49
2019-01-21T07:32:18.922Z,-0.40
2019-01-21T07:33:18.901Z,-0.46
2019-01-21T07:34:18.872Z,-0.44
2019-01-21T07:35:18.851Z,-0.60
2019-01-21T07:36:18.823Z,-0.62
2019-01-21T07:37:18.799Z,-0.60
2019-01-21T07:38:18.779Z,-0.60
2019-01-21T07:39:18.749Z,-0.64
2019-01-21T07:40:18.726Z,-0.78
2019-01-21T07:41:18.698Z,-0.89
2019-01-21T07:42:18.677Z,-0.78
2019-01-21T07:43:18.651Z,-0.70
2019-01-21T07:44:18.622Z,-0.70
2019-01-21T07:45:18.602Z,-0.61
2019-01-21T07:46:18.579Z,-0.60
2019-01-21T07:47:18.555Z,-0.61
2019-01-21T07:48:18.533Z,-0.69
2019-01-21T07:49:18.503Z,-0.80
2019-01-21T07:51:51.075Z,-0.76
2019-01-21T07:52:51.051Z,-0.65
2019-01-21T07:53:51.029Z,-0.75
2019-01-21T07:54:51.001Z,-0.79
2019-01-21T07:55:50.977Z,-0.75
2019-01-21T07:56:50.954Z,-0.79
2019-01-21T07:57:50.939Z,-0.79
2019-01-21T07:58:50.902Z,-0.79
2019-01-21T07:59:50.876Z,-0.78
2019-01-21T08:00:50.851Z,-0.67
2019-01-21T08:01:50.833Z,-0.73
2019-01-21T08:02:50.807Z,-0.75
2019-01-21T08:03:50.779Z,-0.61
2019-01-21T08:04:50.757Z,-0.55
2019-01-21T08:05:50.735Z,-0.60
2019-01-21T08:06:50.723Z,-0.57
2019-01-21T08:07:50.681Z,-0.51
2019-01-21T08:08:50.655Z,-0.60
2019-01-21T08:09:50.634Z,-0.58
2019-01-21T08:10:50.613Z,-0.76
2019-01-21T08:11:50.580Z,-0.70
2019-01-21T08:12:50.561Z,-0.85
2019-01-21T08:13:50.541Z,-0.97
2019-01-21T08:14:50.512Z,-0.95
2019-01-21T08:15:50.490Z,-0.97
2019-01-21T08:16:50.465Z,-0.92
2019-01-21T08:17:50.435Z,-1.02
2019-01-21T08:18:50.413Z,-1.04
2019-01-21T08:19:50.399Z,-1.02
2019-01-21T08:20:50.361Z,-0.89
2019-01-21T08:21:50.342Z,-0.80
2019-01-21T08:22:50.316Z,-0.61
2019-01-21T08:23:50.295Z,-0.49
2019-01-21T08:24:50.261Z,-0.47
2019-01-21T08:25:50.241Z,-0.43
2019-01-21T08:26:50.219Z,-0.44
2019-01-21T08:27:50.190Z,-0.40
2019-01-21T08:28:50.162Z,-0.33
2019-01-21T08:29:50.150Z,-0.36
2019-01-21T08:30:50.122Z,-0.26
2019-01-21T08:31:50.098Z,-0.37
2019-01-21T08:32:50.072Z,-0.39
2019-01-21T08:33:50.044Z,-0.37
2019-01-21T08:34:50.025Z,-0.36
2019-01-21T08:35:49.998Z,-0.33
2019-01-21T08:36:49.972Z,-0.44
2019-01-21T08:37:49.948Z,-0.52
2019-01-21T08:38:49.924Z,-0.55
2019-01-21T08:39:49.897Z,-0.60
2019-01-21T08:40:49.874Z,-0.62
2019-01-21T08:41:49.849Z,-0.73
2019-01-21T08:42:49.828Z,-0.70
2019-01-21T08:43:49.801Z,-0.62
2019-01-21T08:44:49.772Z,-0.78
2019-01-21T08:45:49.750Z,-0.67
2019-01-21T08:46:49.728Z,-0.91
2019-01-21T08:47:49.702Z,-0.89
2019-01-21T08:48:49.684Z,-0.98
2019-01-21T08:49:49.652Z,-1.02
2019-01-21T08:50:49.628Z,-0.98
2019-01-21T08:51:49.602Z,-0.92
2019-01-21T08:52:49.576Z,-1.02
2019-01-21T08:53:49.559Z,-0.99
2019-01-21T08:54:49.538Z,-0.92
2019-01-21T08:55:49.506Z,-0.91
2019-01-21T08:56:49.489Z,-0.86
2019-01-21T08:57:49.459Z,-0.92
2019-01-21T08:58:49.433Z,-0.82
2019-01-21T08:59:49.411Z,-0.78
2019-01-21T09:00:49.383Z,-0.73
2019-01-21T09:01:49.362Z,-0.79
2019-01-21T09:02:49.332Z,-0.76
2019-01-21T09:03:49.310Z,-0.75
2019-01-21T09:04:49.288Z,-0.75
2019-01-21T09:05:49.260Z,-0.62
2019-01-21T09:06:49.240Z,-0.65
2019-01-21T09:07:49.209Z,-0.67
2019-01-21T09:08:49.186Z,-0.70
2019-01-21T09:09:49.164Z,-0.85
2019-01-21T09:10:49.142Z,-0.82
2019-01-21T09:11:49.119Z,-0.83
2019-01-21T09:12:49.092Z,-0.80
2019-01-21T09:13:49.068Z,-0.85
2019-01-21T09:14:49.046Z,-0.86
2019-01-21T09:15:49.014Z,-0.95
2019-01-21T09:16:48.996Z,-0.94
2019-01-21T09:17:48.976Z,-0.94
2019-01-21T09:18:48.941Z,-0.89
2019-01-21T09:19:48.928Z,-0.94
2019-01-21T09:20:48.894Z,-0.89
2019-01-21T09:21:48.865Z,-1.04
2019-01-21T09:22:48.843Z,-0.98
2019-01-21T09:23:48.818Z,-1.04
2019-01-21T09:24:48.795Z,-1.02
2019-01-21T09:25:48.768Z,-1.05
2019-01-21T09:26:48.748Z,-1.04
2019-01-21T09:27:48.732Z,-0.83
2019-01-21T09:28:48.699Z,-0.83
2019-01-21T09:29:48.674Z,-0.85
2019-01-21T09:30:48.646Z,-0.83
2019-01-21T09:31:48.623Z,-0.73
2019-01-21T09:32:48.596Z,-0.85
2019-01-21T09:33:48.573Z,-0.78
2019-01-21T09:34:48.546Z,-0.97
2019-01-21T09:35:48.527Z,-1.05
2019-01-21T09:36:48.520Z,-1.02
2019-01-21T09:37:48.480Z,-1.07
2019-01-21T09:38:48.454Z,-0.95
2019-01-21T09:39:48.426Z,-0.80
2019-01-21T09:40:48.404Z,-0.83
2019-01-21T09:41:48.382Z,-0.75
2019-01-21T09:42:48.353Z,-0.65
2019-01-21T09:43:48.329Z,-0.58
2019-01-21T09:44:48.305Z,-0.49
2019-01-21T09:45:48.284Z,-0.57
2019-01-21T09:46:48.253Z,-0.60
2019-01-21T09:47:48.227Z,-0.55
2019-01-21T09:48:48.219Z,-0.51
2019-01-21T09:49:48.184Z,-0.49
2019-01-21T09:50:48.160Z,-0.49
2019-01-21T09:51:48.139Z,-0.51
2019-01-21T09:52:48.110Z,-0.46
2019-01-21T09:53:48.083Z,-0.64
2019-01-21T09:54:48.059Z,-0.55
2019-01-21T09:55:48.034Z,-0.61
2019-01-21T09:56:48.014Z,-0.69
2019-01-21T09:57:47.986Z,-0.76
2019-01-21T09:58:47.963Z,-0.86
2019-01-21T09:59:47.939Z,-1.02
2019-01-21T10:00:47.912Z,-0.99
2019-01-21T10:01:47.888Z,-0.97
2019-01-21T10:02:47.862Z,-1.07
2019-01-21T10:03:47.837Z,-0.79
2019-01-21T10:04:47.816Z,-0.64
2019-01-21T10:05:47.794Z,-0.64
2019-01-21T10:06:47.766Z,-0.61
2019-01-21T10:07:47.743Z,-0.52
2019-01-21T10:08:47.722Z,-0.54
2019-01-21T10:09:47.695Z,-0.49
2019-01-21T10:10:47.667Z,-0.60
2019-01-21T10:11:47.643Z,-0.62
2019-01-21T10:12:47.621Z,-0.67
2019-01-21T10:13:47.597Z,-0.58
2019-01-21T10:14:47.570Z,-0.51
2019-01-21T10:15:47.547Z,-0.44
2019-01-21T10:16:47.520Z,-0.31
2019-01-21T10:17:47.501Z,-0.39
2019-01-21T10:18:47.473Z,-0.47
2019-01-21T10:19:50.710Z,-0.31
2019-01-21T10:20:47.424Z,-0.31
2019-01-21T10:21:47.400Z,-0.39
2019-01-21T10:22:47.381Z,-0.37
2019-01-21T10:23:47.358Z,-0.36
2019-01-21T10:24:47.331Z,-0.37
2019-01-21T10:25:47.301Z,-0.28
2019-01-21T10:26:47.279Z,-0.19
2019-01-21T10:27:47.251Z,-0.08
2019-01-21T10:28:47.227Z,-0.18
2019-01-21T10:29:47.207Z,-0.33
2019-01-21T10:30:47.179Z,-0.28
2019-01-21T10:31:47.157Z,-0.19
2019-01-21T10:32:47.137Z,-0.21
2019-01-21T10:33:47.111Z,-0.29
2019-01-21T10:34:47.083Z,-0.29
2019-01-21T10:35:47.055Z,-0.19
2019-01-21T10:36:47.033Z,-0.26
2019-01-21T10:37:47.009Z,-0.15
2019-01-21T10:38:46.989Z,-0.14
2019-01-21T10:39:46.959Z,-0.15
2019-01-21T10:40:46.935Z,-0.26
2019-01-21T10:41:46.914Z,-0.21
2019-01-21T10:42:46.887Z,-0.16
2019-01-21T10:43:46.861Z,-0.18
2019-01-21T10:44:46.837Z,-0.14
2019-01-21T10:45:46.815Z,-0.26
2019-01-21T10:46:46.790Z,-0.39
2019-01-21T10:47:46.767Z,-0.40
2019-01-21T10:48:46.748Z,-0.52
2019-01-21T10:49:46.722Z,-0.49
2019-01-21T10:50:46.697Z,-0.49
2019-01-21T10:51:46.671Z,-0.34
2019-01-21T10:52:46.648Z,-0.16
2019-01-21T10:53:46.619Z,0.00
2019-01-21T10:54:46.599Z,-0.05
2019-01-21T10:55:46.577Z,0.00
2019-01-21T10:56:46.546Z,-0.08
2019-01-21T10:57:46.521Z,-0.05
2019-01-21T10:58:46.500Z,0.02
2019-01-21T10:59:46.472Z,0.02
2019-01-21T11:00:46.450Z,0.04
2019-01-21T11:01:46.431Z,0.02
2019-01-21T11:02:46.405Z,0.13
2019-01-21T11:03:46.377Z,0.14
2019-01-21T11:04:46.355Z,0.17
2019-01-21T11:05:46.334Z,0.08
2019-01-21T11:06:46.301Z,0.04
2019-01-21T11:07:46.288Z,-0.01
2019-01-21T11:08:46.258Z,0.00
2019-01-21T11:09:46.233Z,0.11
2019-01-21T11:10:46.210Z,0.08
2019-01-21T11:11:46.187Z,0.17
2019-01-21T11:12:46.157Z,0.17
2019-01-21T11:13:46.140Z,0.15
2019-01-21T11:14:46.110Z,0.20
2019-01-21T11:15:46.092Z,0.17
2019-01-21T11:16:46.063Z,0.08
2019-01-21T11:17:46.041Z,0.14
2019-01-21T11:18:46.023Z,0.17
2019-01-21T11:19:45.995Z,0.17
2019-01-21T11:20:45.969Z,0.13
2019-01-21T11:21:45.943Z,0.15
2019-01-21T11:22:45.917Z,0.21
2019-01-21T11:23:45.895Z,0.10
2019-01-21T11:24:45.875Z,0.03
2019-01-21T11:25:45.851Z,-0.04
2019-01-21T11:26:45.822Z,-0.05
2019-01-21T11:27:45.798Z,-0.05
2019-01-21T11:28:45.777Z,-0.05
2019-01-21T11:29:45.750Z,-0.22
2019-01-21T11:30:45.727Z,-0.18
2019-01-21T11:31:45.702Z,-0.16
2019-01-21T11:32:45.675Z,0.00
2019-01-21T11:33:45.659Z,0.15
2019-01-21T11:34:45.635Z,0.17
2019-01-21T11:35:45.606Z,0.26
2019-01-21T11:36:45.583Z,0.38
2019-01-21T11:37:45.559Z,0.29
2019-01-21T11:38:45.532Z,0.38
2019-01-21T11:39:45.514Z,0.20
2019-01-21T11:40:45.484Z,0.33
2019-01-21T11:41:45.460Z,0.28
2019-01-21T11:42:45.440Z,0.35
2019-01-21T11:43:45.413Z,0.39
2019-01-21T11:44:45.390Z,0.28
2019-01-21T11:45:45.369Z,0.08
2019-01-21T11:46:45.342Z,-0.07
2019-01-21T11:47:45.322Z,-0.16
2019-01-21T11:48:45.293Z,-0.14
2019-01-21T11:49:45.270Z,-0.19
2019-01-21T11:50:45.246Z,-0.23
2019-01-21T11:51:45.220Z,-0.11
2019-01-21T11:52:45.197Z,0.03
2019-01-21T11:53:45.174Z,0.07
2019-01-21T11:54:45.146Z,-0.05
2019-01-21T11:55:45.132Z,0.13
2019-01-21T11:56:45.101Z,0.11
2019-01-21T11:57:45.076Z,0.00
2019-01-21T11:58:45.050Z,0.13
2019-01-21T11:59:45.030Z,0.11
2019-01-21T12:00:45.006Z,0.04
2019-01-21T12:01:44.981Z,0.03
2019-01-21T12:02:44.956Z,0.02
2019-01-21T12:03:44.932Z,0.14
2019-01-21T12:04:44.908Z,0.31
2019-01-21T12:05:44.889Z,0.29
2019-01-21T12:06:44.857Z,0.33
2019-01-21T12:07:44.835Z,0.47
2019-01-21T12:08:44.813Z,0.41
2019-01-21T12:09:44.792Z,0.35
2019-01-21T12:10:44.763Z,0.24
2019-01-21T12:11:44.739Z,0.14
2019-01-21T12:12:44.712Z,0.04
2019-01-21T12:13:44.701Z,0.14
2019-01-21T12:14:44.667Z,0.17
2019-01-21T12:15:44.644Z,-0.05
2019-01-21T12:16:44.624Z,-0.07
2019-01-21T12:17:44.596Z,-0.01
2019-01-21T12:18:44.570Z,-0.07
2019-01-21T12:19:44.551Z,-0.04
2019-01-21T12:20:44.529Z,-0.07
2019-01-21T12:21:44.500Z,0.03
2019-01-21T12:22:44.473Z,0.14
2019-01-21T12:23:44.449Z,0.14
2019-01-21T12:24:44.432Z,0.15
2019-01-21T12:25:44.404Z,0.17
2019-01-21T12:26:44.375Z,0.31
2019-01-21T12:27:44.351Z,0.26
2019-01-21T12:28:44.331Z,0.23
2019-01-21T12:29:44.305Z,0.11
2019-01-21T12:30:44.286Z,0.00
2019-01-21T12:31:44.257Z,-0.04
2019-01-21T12:32:44.232Z,0.10
2019-01-21T12:33:44.210Z,0.15
2019-01-21T12:34:44.185Z,0.20
2019-01-21T12:35:44.163Z,0.33
2019-01-21T12:36:44.142Z,0.28
2019-01-21T12:37:44.113Z,0.41
2019-01-21T12:38:44.095Z,0.46
2019-01-21T12:39:44.082Z,0.58
2019-01-21T12:40:44.043Z,0.55
2019-01-21T12:41:44.021Z,0.55
2019-01-21T12:42:43.997Z,0.62
2019-01-21T12:43:43.977Z,0.49
2019-01-21T12:44:43.956Z,0.58
2019-01-21T12:45:43.931Z,0.60
2019-01-21T12:46:43.897Z,0.70
2019-01-21T12:47:43.876Z,0.60
2019-01-21T12:48:43.848Z,0.51
2019-01-21T12:49:43.824Z,0.58
2019-01-21T12:50:43.800Z,0.66
2019-01-21T12:51:43.775Z,0.69
2019-01-21T12:52:43.748Z,0.66
2019-01-21T12:53:43.730Z,0.70
2019-01-21T12:54:43.705Z,0.68
2019-01-21T12:55:43.680Z,0.70
2019-01-21T12:56:43.655Z,0.62